sensor_id;sensor_type;location;lat;lon;timestamp;P1;durP1;ratioP1;P2;durP2;ratioP2
7773;SDS011;3931;42.260;23.116;2022-07-29T00:02:05;29.73;;;13.57;;
7773;SDS011;3931;42.260;23.116;2022-07-29T00:04:30;23.77;;;13.27;;
7773;SDS011;3931;42.260;23.116;2022-07-29T00:06:56;24.00;;;13.23;;
7773;SDS011;3931;42.260;23.116;2022-07-29T00:09:22;17.93;;;12.70;;
7773;SDS011;3931;42.260;23.116;2022-07-29T00:11:48;21.23;;;12.83;;
7773;SDS011;3931;42.260;23.116;2022-07-29T00:14:14;19.57;;;12.17;;
7773;SDS011;3931;42.260;23.116;2022-07-29T00:16:40;26.30;;;13.67;;
7773;SDS011;3931;42.260;23.116;2022-07-29T00:19:06;21.77;;;10.93;;
7773;SDS011;3931;42.260;23.116;2022-07-29T00:21:32;21.40;;;13.40;;
7773;SDS011;3931;42.260;23.116;2022-07-29T00:23:57;28.57;;;13.13;;
7773;SDS011;3931;42.260;23.116;2022-07-29T00:26:23;27.90;;;13.80;;
7773;SDS011;3931;42.260;23.116;2022-07-29T00:28:49;24.80;;;14.20;;
7773;SDS011;3931;42.260;23.116;2022-07-29T00:31:15;22.27;;;14.30;;
7773;SDS011;3931;42.260;23.116;2022-07-29T00:33:41;32.67;;;15.23;;
7773;SDS011;3931;42.260;23.116;2022-07-29T00:36:07;31.70;;;16.30;;
7773;SDS011;3931;42.260;23.116;2022-07-29T00:38:32;32.50;;;16.77;;
7773;SDS011;3931;42.260;23.116;2022-07-29T00:40:58;30.03;;;15.00;;
7773;SDS011;3931;42.260;23.116;2022-07-29T00:43:24;22.63;;;13.60;;
7773;SDS011;3931;42.260;23.116;2022-07-29T00:45:50;49.07;;;14.20;;
7773;SDS011;3931;42.260;23.116;2022-07-29T00:48:15;23.67;;;13.27;;
7773;SDS011;3931;42.260;23.116;2022-07-29T00:50:42;25.97;;;14.20;;
7773;SDS011;3931;42.260;23.116;2022-07-29T00:53:08;26.63;;;15.73;;
7773;SDS011;3931;42.260;23.116;2022-07-29T00:55:33;40.37;;;16.07;;
7773;SDS011;3931;42.260;23.116;2022-07-29T00:57:59;26.37;;;15.13;;
7773;SDS011;3931;42.260;23.116;2022-07-29T01:00:26;28.50;;;15.37;;
7773;SDS011;3931;42.260;23.116;2022-07-29T01:02:52;22.50;;;14.20;;
7773;SDS011;3931;42.260;23.116;2022-07-29T01:05:18;29.83;;;13.70;;
7773;SDS011;3931;42.260;23.116;2022-07-29T01:07:46;17.87;;;14.00;;
7773;SDS011;3931;42.260;23.116;2022-07-29T01:10:13;23.87;;;14.40;;
7773;SDS011;3931;42.260;23.116;2022-07-29T01:12:39;22.40;;;13.43;;
7773;SDS011;3931;42.260;23.116;2022-07-29T01:15:06;29.43;;;13.20;;
7773;SDS011;3931;42.260;23.116;2022-07-29T01:17:32;26.77;;;14.30;;
7773;SDS011;3931;42.260;23.116;2022-07-29T01:20:01;25.00;;;12.63;;
7773;SDS011;3931;42.260;23.116;2022-07-29T01:22:31;17.37;;;12.50;;
7773;SDS011;3931;42.260;23.116;2022-07-29T01:27:47;24.90;;;13.60;;
7773;SDS011;3931;42.260;23.116;2022-07-29T01:30:16;18.47;;;12.60;;
7773;SDS011;3931;42.260;23.116;2022-07-29T01:32:42;17.47;;;12.83;;
7773;SDS011;3931;42.260;23.116;2022-07-29T01:35:18;22.13;;;12.60;;
7773;SDS011;3931;42.260;23.116;2022-07-29T01:37:46;18.37;;;13.30;;
7773;SDS011;3931;42.260;23.116;2022-07-29T01:40:16;14.53;;;12.27;;
7773;SDS011;3931;42.260;23.116;2022-07-29T01:42:44;17.93;;;11.10;;
7773;SDS011;3931;42.260;23.116;2022-07-29T01:45:12;16.83;;;11.23;;
7773;SDS011;3931;42.260;23.116;2022-07-29T01:47:40;15.70;;;11.20;;
7773;SDS011;3931;42.260;23.116;2022-07-29T01:50:10;18.77;;;10.67;;
7773;SDS011;3931;42.260;23.116;2022-07-29T01:52:38;15.40;;;10.60;;
7773;SDS011;3931;42.260;23.116;2022-07-29T01:55:07;20.43;;;12.13;;
7773;SDS011;3931;42.260;23.116;2022-07-29T01:57:35;14.83;;;11.67;;
7773;SDS011;3931;42.260;23.116;2022-07-29T02:00:01;18.23;;;12.63;;
7773;SDS011;3931;42.260;23.116;2022-07-29T02:02:28;14.50;;;12.50;;
7773;SDS011;3931;42.260;23.116;2022-07-29T02:04:56;15.33;;;12.20;;
7773;SDS011;3931;42.260;23.116;2022-07-29T02:07:23;28.30;;;14.67;;
7773;SDS011;3931;42.260;23.116;2022-07-29T02:09:50;20.50;;;13.20;;
7773;SDS011;3931;42.260;23.116;2022-07-29T02:12:17;17.20;;;12.87;;
7773;SDS011;3931;42.260;23.116;2022-07-29T02:14:47;29.60;;;12.67;;
7773;SDS011;3931;42.260;23.116;2022-07-29T02:17:13;31.67;;;13.30;;
7773;SDS011;3931;42.260;23.116;2022-07-29T02:19:42;25.00;;;13.83;;
7773;SDS011;3931;42.260;23.116;2022-07-29T02:22:09;19.23;;;13.67;;
7773;SDS011;3931;42.260;23.116;2022-07-29T02:24:35;21.40;;;13.80;;
7773;SDS011;3931;42.260;23.116;2022-07-29T02:27:02;23.23;;;13.67;;
7773;SDS011;3931;42.260;23.116;2022-07-29T02:29:29;20.17;;;13.63;;
7773;SDS011;3931;42.260;23.116;2022-07-29T02:31:55;20.00;;;14.60;;
7773;SDS011;3931;42.260;23.116;2022-07-29T02:34:22;16.97;;;13.00;;
7773;SDS011;3931;42.260;23.116;2022-07-29T02:36:48;23.67;;;11.80;;
7773;SDS011;3931;42.260;23.116;2022-07-29T02:39:15;21.97;;;13.07;;
7773;SDS011;3931;42.260;23.116;2022-07-29T02:41:42;22.87;;;11.43;;
7773;SDS011;3931;42.260;23.116;2022-07-29T02:44:09;19.03;;;11.67;;
7773;SDS011;3931;42.260;23.116;2022-07-29T02:46:36;16.77;;;11.10;;
7773;SDS011;3931;42.260;23.116;2022-07-29T02:49:04;23.93;;;13.10;;
7773;SDS011;3931;42.260;23.116;2022-07-29T02:51:33;30.90;;;13.73;;
7773;SDS011;3931;42.260;23.116;2022-07-29T02:54:02;15.23;;;11.87;;
7773;SDS011;3931;42.260;23.116;2022-07-29T02:56:31;18.83;;;12.50;;
7773;SDS011;3931;42.260;23.116;2022-07-29T02:59:01;28.07;;;13.53;;
7773;SDS011;3931;42.260;23.116;2022-07-29T03:01:29;16.10;;;11.80;;
7773;SDS011;3931;42.260;23.116;2022-07-29T03:03:55;17.03;;;12.53;;
7773;SDS011;3931;42.260;23.116;2022-07-29T03:06:22;21.60;;;13.40;;
7773;SDS011;3931;42.260;23.116;2022-07-29T03:08:48;24.90;;;13.67;;
7773;SDS011;3931;42.260;23.116;2022-07-29T03:11:14;17.10;;;12.70;;
7773;SDS011;3931;42.260;23.116;2022-07-29T03:13:41;21.17;;;12.70;;
7773;SDS011;3931;42.260;23.116;2022-07-29T03:16:07;24.13;;;13.87;;
7773;SDS011;3931;42.260;23.116;2022-07-29T03:18:34;25.67;;;13.27;;
7773;SDS011;3931;42.260;23.116;2022-07-29T03:21:00;17.60;;;13.13;;
7773;SDS011;3931;42.260;23.116;2022-07-29T03:23:26;20.23;;;13.70;;
7773;SDS011;3931;42.260;23.116;2022-07-29T03:25:53;23.57;;;14.83;;
7773;SDS011;3931;42.260;23.116;2022-07-29T03:28:18;26.03;;;12.37;;
7773;SDS011;3931;42.260;23.116;2022-07-29T03:30:45;21.83;;;12.13;;
7773;SDS011;3931;42.260;23.116;2022-07-29T03:33:11;22.07;;;12.43;;
7773;SDS011;3931;42.260;23.116;2022-07-29T03:35:37;33.77;;;12.73;;
7773;SDS011;3931;42.260;23.116;2022-07-29T03:38:03;36.20;;;15.37;;
7773;SDS011;3931;42.260;23.116;2022-07-29T03:40:30;23.80;;;13.10;;
7773;SDS011;3931;42.260;23.116;2022-07-29T03:42:57;30.17;;;12.73;;
7773;SDS011;3931;42.260;23.116;2022-07-29T03:45:24;44.97;;;25.03;;
7773;SDS011;3931;42.260;23.116;2022-07-29T03:47:53;61.50;;;37.63;;
7773;SDS011;3931;42.260;23.116;2022-07-29T03:50:20;74.30;;;48.13;;
7773;SDS011;3931;42.260;23.116;2022-07-29T03:52:46;25.53;;;13.07;;
7773;SDS011;3931;42.260;23.116;2022-07-29T03:55:13;25.53;;;12.90;;
7773;SDS011;3931;42.260;23.116;2022-07-29T03:57:38;19.03;;;12.83;;
7773;SDS011;3931;42.260;23.116;2022-07-29T04:00:05;16.40;;;11.07;;
7773;SDS011;3931;42.260;23.116;2022-07-29T04:02:32;39.73;;;28.00;;
7773;SDS011;3931;42.260;23.116;2022-07-29T04:04:58;71.40;;;45.17;;
7773;SDS011;3931;42.260;23.116;2022-07-29T04:07:24;126.53;;;78.87;;
7773;SDS011;3931;42.260;23.116;2022-07-29T04:09:50;26.63;;;17.63;;
7773;SDS011;3931;42.260;23.116;2022-07-29T04:12:16;20.53;;;12.37;;
7773;SDS011;3931;42.260;23.116;2022-07-29T04:14:41;49.07;;;33.77;;
7773;SDS011;3931;42.260;23.116;2022-07-29T04:17:07;112.53;;;83.53;;
7773;SDS011;3931;42.260;23.116;2022-07-29T04:19:33;182.77;;;129.40;;
7773;SDS011;3931;42.260;23.116;2022-07-29T04:21:59;25.83;;;16.30;;
7773;SDS011;3931;42.260;23.116;2022-07-29T04:24:25;34.03;;;15.23;;
7773;SDS011;3931;42.260;23.116;2022-07-29T04:26:51;33.30;;;14.53;;
7773;SDS011;3931;42.260;23.116;2022-07-29T04:29:17;30.83;;;13.10;;
7773;SDS011;3931;42.260;23.116;2022-07-29T04:31:43;25.33;;;14.20;;
7773;SDS011;3931;42.260;23.116;2022-07-29T04:34:09;32.73;;;14.80;;
7773;SDS011;3931;42.260;23.116;2022-07-29T04:36:35;21.07;;;13.47;;
7773;SDS011;3931;42.260;23.116;2022-07-29T04:39:02;40.97;;;16.40;;
7773;SDS011;3931;42.260;23.116;2022-07-29T04:41:28;52.10;;;17.07;;
7773;SDS011;3931;42.260;23.116;2022-07-29T04:43:54;55.10;;;17.90;;
7773;SDS011;3931;42.260;23.116;2022-07-29T04:46:19;40.43;;;16.77;;
7773;SDS011;3931;42.260;23.116;2022-07-29T04:48:46;223.77;;;142.53;;
7773;SDS011;3931;42.260;23.116;2022-07-29T04:51:11;231.70;;;136.63;;
7773;SDS011;3931;42.260;23.116;2022-07-29T04:53:37;227.53;;;124.53;;
7773;SDS011;3931;42.260;23.116;2022-07-29T04:56:04;100.13;;;38.43;;
7773;SDS011;3931;42.260;23.116;2022-07-29T04:58:30;49.87;;;20.97;;
7773;SDS011;3931;42.260;23.116;2022-07-29T05:00:56;56.97;;;19.20;;
7773;SDS011;3931;42.260;23.116;2022-07-29T05:03:21;72.97;;;20.00;;
7773;SDS011;3931;42.260;23.116;2022-07-29T05:05:47;56.47;;;18.67;;
7773;SDS011;3931;42.260;23.116;2022-07-29T05:08:13;43.83;;;18.10;;
7773;SDS011;3931;42.260;23.116;2022-07-29T05:10:39;51.47;;;17.77;;
7773;SDS011;3931;42.260;23.116;2022-07-29T05:13:06;67.63;;;19.27;;
7773;SDS011;3931;42.260;23.116;2022-07-29T05:15:32;56.30;;;18.50;;
7773;SDS011;3931;42.260;23.116;2022-07-29T05:17:58;53.67;;;17.47;;
7773;SDS011;3931;42.260;23.116;2022-07-29T05:20:24;54.60;;;17.77;;
7773;SDS011;3931;42.260;23.116;2022-07-29T05:22:53;54.97;;;17.97;;
7773;SDS011;3931;42.260;23.116;2022-07-29T05:25:19;51.50;;;17.17;;
7773;SDS011;3931;42.260;23.116;2022-07-29T05:27:45;53.27;;;17.77;;
7773;SDS011;3931;42.260;23.116;2022-07-29T05:30:11;51.63;;;16.80;;
7773;SDS011;3931;42.260;23.116;2022-07-29T05:32:37;43.97;;;16.40;;
7773;SDS011;3931;42.260;23.116;2022-07-29T05:35:03;54.23;;;17.57;;
7773;SDS011;3931;42.260;23.116;2022-07-29T05:37:29;63.47;;;18.73;;
7773;SDS011;3931;42.260;23.116;2022-07-29T05:39:55;30.97;;;15.17;;
7773;SDS011;3931;42.260;23.116;2022-07-29T05:42:20;35.23;;;14.73;;
7773;SDS011;3931;42.260;23.116;2022-07-29T05:44:46;36.47;;;15.20;;
7773;SDS011;3931;42.260;23.116;2022-07-29T05:47:13;33.40;;;14.83;;
7773;SDS011;3931;42.260;23.116;2022-07-29T05:49:39;36.57;;;15.27;;
7773;SDS011;3931;42.260;23.116;2022-07-29T05:52:05;29.43;;;15.73;;
7773;SDS011;3931;42.260;23.116;2022-07-29T05:54:30;31.57;;;15.80;;
7773;SDS011;3931;42.260;23.116;2022-07-29T05:56:56;27.70;;;14.57;;
7773;SDS011;3931;42.260;23.116;2022-07-29T05:59:22;21.73;;;14.37;;
7773;SDS011;3931;42.260;23.116;2022-07-29T06:01:48;23.90;;;13.87;;
7773;SDS011;3931;42.260;23.116;2022-07-29T06:04:14;27.77;;;14.57;;
7773;SDS011;3931;42.260;23.116;2022-07-29T06:06:40;28.53;;;13.30;;
7773;SDS011;3931;42.260;23.116;2022-07-29T06:09:06;22.40;;;12.83;;
7773;SDS011;3931;42.260;23.116;2022-07-29T06:11:32;19.37;;;12.17;;
7773;SDS011;3931;42.260;23.116;2022-07-29T06:13:58;28.20;;;14.47;;
7773;SDS011;3931;42.260;23.116;2022-07-29T06:16:24;20.13;;;11.63;;
7773;SDS011;3931;42.260;23.116;2022-07-29T06:18:50;24.10;;;12.50;;
7773;SDS011;3931;42.260;23.116;2022-07-29T06:21:16;32.97;;;13.10;;
7773;SDS011;3931;42.260;23.116;2022-07-29T06:23:42;23.87;;;12.87;;
7773;SDS011;3931;42.260;23.116;2022-07-29T06:26:08;15.50;;;11.70;;
7773;SDS011;3931;42.260;23.116;2022-07-29T06:28:34;17.40;;;12.20;;
7773;SDS011;3931;42.260;23.116;2022-07-29T06:30:59;19.83;;;13.30;;
7773;SDS011;3931;42.260;23.116;2022-07-29T06:33:25;21.30;;;13.57;;
7773;SDS011;3931;42.260;23.116;2022-07-29T06:35:51;15.87;;;11.90;;
7773;SDS011;3931;42.260;23.116;2022-07-29T06:38:17;12.33;;;11.03;;
7773;SDS011;3931;42.260;23.116;2022-07-29T06:40:43;18.80;;;11.87;;
7773;SDS011;3931;42.260;23.116;2022-07-29T06:43:29;17.90;;;12.77;;
7773;SDS011;3931;42.260;23.116;2022-07-29T06:45:57;28.10;;;11.57;;
7773;SDS011;3931;42.260;23.116;2022-07-29T06:48:22;16.73;;;12.27;;
7773;SDS011;3931;42.260;23.116;2022-07-29T06:50:48;20.70;;;12.60;;
7773;SDS011;3931;42.260;23.116;2022-07-29T06:53:14;20.50;;;13.10;;
7773;SDS011;3931;42.260;23.116;2022-07-29T06:55:41;20.30;;;11.70;;
7773;SDS011;3931;42.260;23.116;2022-07-29T06:58:07;16.47;;;12.10;;
7773;SDS011;3931;42.260;23.116;2022-07-29T07:00:34;17.03;;;11.63;;
7773;SDS011;3931;42.260;23.116;2022-07-29T07:03:00;15.60;;;12.70;;
7773;SDS011;3931;42.260;23.116;2022-07-29T07:05:26;20.40;;;13.00;;
7773;SDS011;3931;42.260;23.116;2022-07-29T07:07:51;21.83;;;11.93;;
7773;SDS011;3931;42.260;23.116;2022-07-29T07:10:17;23.53;;;13.10;;
7773;SDS011;3931;42.260;23.116;2022-07-29T07:12:43;15.30;;;12.33;;
7773;SDS011;3931;42.260;23.116;2022-07-29T07:15:09;16.73;;;11.43;;
7773;SDS011;3931;42.260;23.116;2022-07-29T07:17:35;19.63;;;12.80;;
7773;SDS011;3931;42.260;23.116;2022-07-29T07:20:03;20.70;;;13.00;;
7773;SDS011;3931;42.260;23.116;2022-07-29T07:22:29;19.50;;;12.50;;
7773;SDS011;3931;42.260;23.116;2022-07-29T07:24:55;19.63;;;13.13;;
7773;SDS011;3931;42.260;23.116;2022-07-29T07:27:21;16.97;;;13.53;;
7773;SDS011;3931;42.260;23.116;2022-07-29T07:29:48;21.50;;;12.93;;
7773;SDS011;3931;42.260;23.116;2022-07-29T07:32:14;42.67;;;14.30;;
7773;SDS011;3931;42.260;23.116;2022-07-29T07:34:41;18.93;;;12.83;;
7773;SDS011;3931;42.260;23.116;2022-07-29T07:37:07;26.13;;;13.77;;
7773;SDS011;3931;42.260;23.116;2022-07-29T07:39:33;27.67;;;13.00;;
7773;SDS011;3931;42.260;23.116;2022-07-29T07:41:59;20.00;;;13.10;;
7773;SDS011;3931;42.260;23.116;2022-07-29T07:44:25;23.53;;;13.10;;
7773;SDS011;3931;42.260;23.116;2022-07-29T07:46:51;19.13;;;14.03;;
7773;SDS011;3931;42.260;23.116;2022-07-29T07:49:17;23.27;;;13.07;;
7773;SDS011;3931;42.260;23.116;2022-07-29T07:51:43;36.70;;;13.90;;
7773;SDS011;3931;42.260;23.116;2022-07-29T07:54:09;23.73;;;11.43;;
7773;SDS011;3931;42.260;23.116;2022-07-29T07:56:34;20.33;;;12.70;;
7773;SDS011;3931;42.260;23.116;2022-07-29T07:59:00;25.97;;;10.80;;
7773;SDS011;3931;42.260;23.116;2022-07-29T08:01:26;14.80;;;11.60;;
7773;SDS011;3931;42.260;23.116;2022-07-29T08:03:52;35.43;;;12.03;;
7773;SDS011;3931;42.260;23.116;2022-07-29T08:06:18;18.20;;;9.83;;
7773;SDS011;3931;42.260;23.116;2022-07-29T08:08:44;13.90;;;9.73;;
7773;SDS011;3931;42.260;23.116;2022-07-29T08:11:10;32.43;;;11.23;;
7773;SDS011;3931;42.260;23.116;2022-07-29T08:13:36;16.03;;;9.50;;
7773;SDS011;3931;42.260;23.116;2022-07-29T08:16:02;15.70;;;9.80;;
7773;SDS011;3931;42.260;23.116;2022-07-29T08:18:36;22.87;;;11.17;;
7773;SDS011;3931;42.260;23.116;2022-07-29T08:21:03;19.73;;;11.47;;
7773;SDS011;3931;42.260;23.116;2022-07-29T08:23:29;30.00;;;12.20;;
7773;SDS011;3931;42.260;23.116;2022-07-29T08:26:03;25.80;;;11.13;;
7773;SDS011;3931;42.260;23.116;2022-07-29T08:28:29;14.90;;;10.77;;
7773;SDS011;3931;42.260;23.116;2022-07-29T08:30:54;19.43;;;10.77;;
7773;SDS011;3931;42.260;23.116;2022-07-29T08:33:20;18.00;;;11.00;;
7773;SDS011;3931;42.260;23.116;2022-07-29T08:35:46;22.73;;;10.43;;
7773;SDS011;3931;42.260;23.116;2022-07-29T08:38:12;20.87;;;11.30;;
7773;SDS011;3931;42.260;23.116;2022-07-29T08:40:39;20.00;;;10.77;;
7773;SDS011;3931;42.260;23.116;2022-07-29T08:43:05;19.60;;;11.20;;
7773;SDS011;3931;42.260;23.116;2022-07-29T08:45:33;24.50;;;11.70;;
7773;SDS011;3931;42.260;23.116;2022-07-29T08:48:02;19.02;;;11.05;;
7773;SDS011;3931;42.260;23.116;2022-07-29T08:50:28;12.57;;;9.97;;
7773;SDS011;3931;42.260;23.116;2022-07-29T08:52:54;23.73;;;10.75;;
7773;SDS011;3931;42.260;23.116;2022-07-29T08:55:20;25.10;;;15.57;;
7773;SDS011;3931;42.260;23.116;2022-07-29T08:57:47;13.63;;;10.47;;
7773;SDS011;3931;42.260;23.116;2022-07-29T09:00:13;20.00;;;11.90;;
7773;SDS011;3931;42.260;23.116;2022-07-29T09:02:39;19.23;;;9.50;;
7773;SDS011;3931;42.260;23.116;2022-07-29T09:05:06;23.77;;;11.23;;
7773;SDS011;3931;42.260;23.116;2022-07-29T09:07:31;18.85;;;10.52;;
7773;SDS011;3931;42.260;23.116;2022-07-29T09:09:58;24.00;;;10.20;;
7773;SDS011;3931;42.260;23.116;2022-07-29T09:12:24;14.60;;;9.95;;
7773;SDS011;3931;42.260;23.116;2022-07-29T09:14:50;22.35;;;10.23;;
7773;SDS011;3931;42.260;23.116;2022-07-29T09:17:16;14.68;;;9.98;;
7773;SDS011;3931;42.260;23.116;2022-07-29T09:19:43;15.73;;;9.48;;
7773;SDS011;3931;42.260;23.116;2022-07-29T09:22:09;13.55;;;8.85;;
7773;SDS011;3931;42.260;23.116;2022-07-29T09:24:37;14.88;;;8.32;;
7773;SDS011;3931;42.260;23.116;2022-07-29T09:27:06;17.55;;;9.52;;
7773;SDS011;3931;42.260;23.116;2022-07-29T09:29:33;13.23;;;9.45;;
7773;SDS011;3931;42.260;23.116;2022-07-29T09:31:59;12.57;;;8.57;;
7773;SDS011;3931;42.260;23.116;2022-07-29T09:34:26;11.02;;;9.10;;
7773;SDS011;3931;42.260;23.116;2022-07-29T09:36:52;16.83;;;8.82;;
7773;SDS011;3931;42.260;23.116;2022-07-29T09:39:26;10.27;;;9.15;;
7773;SDS011;3931;42.260;23.116;2022-07-29T09:41:52;13.32;;;9.13;;
7773;SDS011;3931;42.260;23.116;2022-07-29T09:44:18;13.68;;;10.05;;
7773;SDS011;3931;42.260;23.116;2022-07-29T09:46:55;10.88;;;8.40;;
7773;SDS011;3931;42.260;23.116;2022-07-29T09:49:21;20.20;;;8.80;;
7773;SDS011;3931;42.260;23.116;2022-07-29T09:51:46;17.15;;;8.93;;
7773;SDS011;3931;42.260;23.116;2022-07-29T09:54:22;13.90;;;9.32;;
7773;SDS011;3931;42.260;23.116;2022-07-29T09:56:48;14.45;;;9.68;;
7773;SDS011;3931;42.260;23.116;2022-07-29T09:59:14;9.65;;;8.65;;
7773;SDS011;3931;42.260;23.116;2022-07-29T10:01:40;12.98;;;9.18;;
7773;SDS011;3931;42.260;23.116;2022-07-29T10:04:06;16.20;;;8.90;;
7773;SDS011;3931;42.260;23.116;2022-07-29T10:06:32;11.25;;;8.75;;
7773;SDS011;3931;42.260;23.116;2022-07-29T10:09:06;13.30;;;8.57;;
7773;SDS011;3931;42.260;23.116;2022-07-29T10:11:32;12.10;;;8.68;;
7773;SDS011;3931;42.260;23.116;2022-07-29T10:13:58;18.85;;;9.50;;
7773;SDS011;3931;42.260;23.116;2022-07-29T10:16:24;8.38;;;7.47;;
7773;SDS011;3931;42.260;23.116;2022-07-29T10:18:52;10.50;;;8.32;;
7773;SDS011;3931;42.260;23.116;2022-07-29T10:21:18;10.57;;;8.13;;
7773;SDS011;3931;42.260;23.116;2022-07-29T10:23:44;10.23;;;9.23;;
7773;SDS011;3931;42.260;23.116;2022-07-29T10:26:10;11.43;;;8.15;;
7773;SDS011;3931;42.260;23.116;2022-07-29T10:28:36;9.13;;;8.20;;
7773;SDS011;3931;42.260;23.116;2022-07-29T10:31:03;15.40;;;8.07;;
7773;SDS011;3931;42.260;23.116;2022-07-29T10:33:35;12.05;;;8.68;;
7773;SDS011;3931;42.260;23.116;2022-07-29T10:36:07;10.30;;;7.97;;
7773;SDS011;3931;42.260;23.116;2022-07-29T10:38:43;9.55;;;8.00;;
7773;SDS011;3931;42.260;23.116;2022-07-29T10:41:18;12.23;;;8.85;;
7773;SDS011;3931;42.260;23.116;2022-07-29T10:43:53;15.30;;;8.07;;
7773;SDS011;3931;42.260;23.116;2022-07-29T10:46:19;20.48;;;8.77;;
7773;SDS011;3931;42.260;23.116;2022-07-29T10:49:04;14.38;;;7.50;;
7773;SDS011;3931;42.260;23.116;2022-07-29T10:51:43;21.17;;;7.35;;
7773;SDS011;3931;42.260;23.116;2022-07-29T10:54:16;11.35;;;6.97;;
7773;SDS011;3931;42.260;23.116;2022-07-29T10:56:42;14.90;;;8.55;;
7773;SDS011;3931;42.260;23.116;2022-07-29T10:59:23;12.43;;;6.80;;
7773;SDS011;3931;42.260;23.116;2022-07-29T11:01:50;8.95;;;7.05;;
7773;SDS011;3931;42.260;23.116;2022-07-29T11:04:16;8.82;;;7.38;;
7773;SDS011;3931;42.260;23.116;2022-07-29T11:07:08;7.47;;;6.78;;
7773;SDS011;3931;42.260;23.116;2022-07-29T11:09:35;6.35;;;5.75;;
7773;SDS011;3931;42.260;23.116;2022-07-29T11:12:01;6.90;;;6.30;;
7773;SDS011;3931;42.260;23.116;2022-07-29T11:17:11;8.73;;;6.78;;
7773;SDS011;3931;42.260;23.116;2022-07-29T11:19:37;11.65;;;6.18;;
7773;SDS011;3931;42.260;23.116;2022-07-29T11:22:07;6.10;;;5.60;;
7773;SDS011;3931;42.260;23.116;2022-07-29T11:24:33;7.05;;;6.25;;
7773;SDS011;3931;42.260;23.116;2022-07-29T11:27:11;12.52;;;7.75;;
7773;SDS011;3931;42.260;23.116;2022-07-29T11:29:38;12.60;;;6.25;;
7773;SDS011;3931;42.260;23.116;2022-07-29T11:32:08;11.40;;;6.45;;
7773;SDS011;3931;42.260;23.116;2022-07-29T11:34:35;11.68;;;6.88;;
7773;SDS011;3931;42.260;23.116;2022-07-29T11:37:15;8.60;;;6.55;;
7773;SDS011;3931;42.260;23.116;2022-07-29T11:39:41;11.82;;;6.80;;
7773;SDS011;3931;42.260;23.116;2022-07-29T11:44:55;8.02;;;6.82;;
7773;SDS011;3931;42.260;23.116;2022-07-29T11:47:21;7.55;;;6.28;;
7773;SDS011;3931;42.260;23.116;2022-07-29T11:49:47;10.90;;;7.28;;
7773;SDS011;3931;42.260;23.116;2022-07-29T11:52:13;7.75;;;7.05;;
7773;SDS011;3931;42.260;23.116;2022-07-29T11:54:39;13.65;;;7.35;;
7773;SDS011;3931;42.260;23.116;2022-07-29T11:57:07;7.80;;;7.00;;
7773;SDS011;3931;42.260;23.116;2022-07-29T11:59:37;11.48;;;6.40;;
7773;SDS011;3931;42.260;23.116;2022-07-29T12:02:04;9.48;;;7.25;;
7773;SDS011;3931;42.260;23.116;2022-07-29T12:04:30;10.77;;;6.97;;
7773;SDS011;3931;42.260;23.116;2022-07-29T12:06:56;11.90;;;7.05;;
7773;SDS011;3931;42.260;23.116;2022-07-29T12:09:22;9.52;;;6.68;;
7773;SDS011;3931;42.260;23.116;2022-07-29T12:11:48;7.53;;;6.80;;
7773;SDS011;3931;42.260;23.116;2022-07-29T12:14:26;10.75;;;7.78;;
7773;SDS011;3931;42.260;23.116;2022-07-29T12:16:52;8.82;;;7.05;;
7773;SDS011;3931;42.260;23.116;2022-07-29T12:19:19;8.38;;;7.50;;
7773;SDS011;3931;42.260;23.116;2022-07-29T12:21:45;8.98;;;7.60;;
7773;SDS011;3931;42.260;23.116;2022-07-29T12:24:11;10.32;;;7.72;;
7773;SDS011;3931;42.260;23.116;2022-07-29T12:26:36;13.00;;;7.85;;
7773;SDS011;3931;42.260;23.116;2022-07-29T12:29:14;8.27;;;7.47;;
7773;SDS011;3931;42.260;23.116;2022-07-29T12:31:40;8.55;;;7.65;;
7773;SDS011;3931;42.260;23.116;2022-07-29T12:34:06;11.02;;;8.50;;
7773;SDS011;3931;42.260;23.116;2022-07-29T12:36:33;10.25;;;8.05;;
7773;SDS011;3931;42.260;23.116;2022-07-29T12:38:58;9.50;;;8.07;;
7773;SDS011;3931;42.260;23.116;2022-07-29T12:41:24;9.27;;;8.32;;
7773;SDS011;3931;42.260;23.116;2022-07-29T12:43:53;10.50;;;7.93;;
7773;SDS011;3931;42.260;23.116;2022-07-29T12:46:19;12.27;;;7.97;;
7773;SDS011;3931;42.260;23.116;2022-07-29T12:48:49;13.80;;;8.20;;
7773;SDS011;3931;42.260;23.116;2022-07-29T12:51:15;8.85;;;7.95;;
7773;SDS011;3931;42.260;23.116;2022-07-29T12:54:00;13.10;;;8.40;;
7773;SDS011;3931;42.260;23.116;2022-07-29T12:56:26;11.30;;;8.40;;
7773;SDS011;3931;42.260;23.116;2022-07-29T12:58:52;10.48;;;8.13;;
7773;SDS011;3931;42.260;23.116;2022-07-29T13:01:18;14.43;;;9.00;;
7773;SDS011;3931;42.260;23.116;2022-07-29T13:03:45;9.35;;;8.45;;
7773;SDS011;3931;42.260;23.116;2022-07-29T13:06:27;13.70;;;7.20;;
7773;SDS011;3931;42.260;23.116;2022-07-29T13:08:59;15.32;;;6.20;;
7773;SDS011;3931;42.260;23.116;2022-07-29T13:11:28;7.68;;;6.88;;
7773;SDS011;3931;42.260;23.116;2022-07-29T13:13:54;9.13;;;6.70;;
7773;SDS011;3931;42.260;23.116;2022-07-29T13:16:20;6.80;;;6.10;;
7773;SDS011;3931;42.260;23.116;2022-07-29T13:18:46;8.10;;;6.60;;
7773;SDS011;3931;42.260;23.116;2022-07-29T13:21:12;7.30;;;6.55;;
7773;SDS011;3931;42.260;23.116;2022-07-29T13:23:38;8.02;;;7.22;;
7773;SDS011;3931;42.260;23.116;2022-07-29T13:26:05;8.32;;;7.00;;
7773;SDS011;3931;42.260;23.116;2022-07-29T13:28:32;8.73;;;7.28;;
7773;SDS011;3931;42.260;23.116;2022-07-29T13:30:58;8.18;;;7.38;;
7773;SDS011;3931;42.260;23.116;2022-07-29T13:33:23;10.70;;;6.38;;
7773;SDS011;3931;42.260;23.116;2022-07-29T13:35:49;12.07;;;6.63;;
7773;SDS011;3931;42.260;23.116;2022-07-29T13:38:15;8.82;;;6.38;;
7773;SDS011;3931;42.260;23.116;2022-07-29T13:40:41;9.05;;;6.75;;
7773;SDS011;3931;42.260;23.116;2022-07-29T13:43:09;8.18;;;7.45;;
7773;SDS011;3931;42.260;23.116;2022-07-29T13:45:34;13.20;;;7.78;;
7773;SDS011;3931;42.260;23.116;2022-07-29T13:48:00;9.38;;;7.03;;
7773;SDS011;3931;42.260;23.116;2022-07-29T13:50:26;8.05;;;6.38;;
7773;SDS011;3931;42.260;23.116;2022-07-29T13:52:52;9.23;;;6.65;;
7773;SDS011;3931;42.260;23.116;2022-07-29T13:55:18;9.10;;;6.75;;
7773;SDS011;3931;42.260;23.116;2022-07-29T13:57:44;8.90;;;6.10;;
7773;SDS011;3931;42.260;23.116;2022-07-29T14:00:11;8.73;;;7.47;;
7773;SDS011;3931;42.260;23.116;2022-07-29T14:02:37;8.02;;;7.32;;
7773;SDS011;3931;42.260;23.116;2022-07-29T14:05:04;10.73;;;6.97;;
7773;SDS011;3931;42.260;23.116;2022-07-29T14:07:29;8.15;;;7.35;;
7773;SDS011;3931;42.260;23.116;2022-07-29T14:09:55;10.35;;;7.68;;
7773;SDS011;3931;42.260;23.116;2022-07-29T14:12:21;8.80;;;6.07;;
7773;SDS011;3931;42.260;23.116;2022-07-29T14:14:47;7.40;;;6.60;;
7773;SDS011;3931;42.260;23.116;2022-07-29T14:17:14;25.63;;;7.15;;
7773;SDS011;3931;42.260;23.116;2022-07-29T14:19:40;14.77;;;7.05;;
7773;SDS011;3931;42.260;23.116;2022-07-29T14:22:06;7.90;;;6.70;;
7773;SDS011;3931;42.260;23.116;2022-07-29T14:24:32;8.30;;;5.95;;
7773;SDS011;3931;42.260;23.116;2022-07-29T14:26:58;7.88;;;7.07;;
7773;SDS011;3931;42.260;23.116;2022-07-29T14:29:24;8.80;;;7.13;;
7773;SDS011;3931;42.260;23.116;2022-07-29T14:31:50;6.25;;;5.70;;
7773;SDS011;3931;42.260;23.116;2022-07-29T14:34:16;8.25;;;6.43;;
7773;SDS011;3931;42.260;23.116;2022-07-29T14:36:42;6.75;;;6.20;;
7773;SDS011;3931;42.260;23.116;2022-07-29T14:39:08;12.85;;;6.68;;
7773;SDS011;3931;42.260;23.116;2022-07-29T14:41:34;9.30;;;6.28;;
7773;SDS011;3931;42.260;23.116;2022-07-29T14:44:00;6.90;;;6.30;;
7773;SDS011;3931;42.260;23.116;2022-07-29T14:46:27;8.50;;;6.88;;
7773;SDS011;3931;42.260;23.116;2022-07-29T14:48:52;12.50;;;6.85;;